Aérodrome :
LOGIN :

S'inscrire | Disclaimer

   EN    FR    IT 

 










Légende :    VFR   VFR Marginal   IFR   IFR Intensif   IFR Très Intensif
Visi : 
Plafond : 
>= 8 km
>= 3000ft
5 à 8 km
1000 à 3000 ft
1500m à 5 km
500 à 1000 ft
800 à 1500m
200 à 500 ft
< 800m
< 200 ft
Symboles :   Orages  Brouillard  Fortes neiges  Fortes précipitations  Vent > 20 kt
SIGMETs :   Divers  Orages  Givrage  Turbulence  Onde Orograph.  Cendres Volcan.







- Altitude de l'aérodrome : 456 ft
- Code IATA : QPZ


LIMS - San Damiano Air Base Piacenza

DERNIER METAR :
  • 280655Z 34001KT 1600 -DZ BR FEW025 SCT040 BKN050 05/05 Q1004 RMK OVC VIS MIN 1600 WIND THR30 31002KT YLO

METARs EXPIRÉS :
  • 280555Z 30002KT 1500 -RA BR FEW023 SCT035 BKN050 05/05 Q1005 RMK OVC VIS MIN 1500 WIND THR30 29001KT AMB
  • 280455Z 32002KT 1800 -RA BR FEW023 SCT045 BKN060 05/05 Q1006

TAF TAF LIMS
Valide du 28 à 06h jusqu'au 28 à 15h UTC


280500Z 2806/2815 VRB04KT 3000 BR SCT030 BKN060
TEMPO 2806/2815 1500 RA BR
Pas de NOTAMs connus pour ce terrain.
2 SIGMETs publiés pour la FIR Milano (LIMM) :
 
Givrage fort
LIMM SIGMET 3 VALID 280725/280925 LIMM- LIMM MILANO FIR SEV ICE OBS WI N4557 E00825 - N4559 E00937 - N4526 E00938 - N4526 E00842 - N4543 E00811 - N4557 E00825 STNR NC=
Turbulence forte
LIMM SIGMET 2 VALID 280500/280900 LIMM- LIMM MILANO FIR SEV TURB FCST N OF LINE N4521 E00653 - N4636 E01322 FL240/370 STNR NC=



MET'MAP, la Météo Aéronautique d'un coup d'oeil ! - Copyright ORBIFLY Décembre 2007 - Disclaimer

ORBIFLY MET'MAP TEAM :

Programmation & Développement : Alexandra Zaïnal
Conception & Développement : Baudouin d'Aumeries
Co-Programmation & Développement : Marc-Olivier Méhu
Soutien technique & logistique : Manuel Goepfert

Contact : metmap@orbifly.com




SOURCES & CREDITS :

   NOAA